createdAt,value
2017-04-09T00:00:23.216Z,0
2017-04-09T00:01:23.228Z,0
2017-04-09T00:02:22.929Z,0
2017-04-09T00:03:23.266Z,0
2017-04-09T00:04:23.278Z,0
2017-04-09T00:05:22.982Z,0
2017-04-09T00:06:23.009Z,0
2017-04-09T00:07:23.233Z,0
2017-04-09T00:08:23.035Z,0
2017-04-09T00:09:23.257Z,0
2017-04-09T00:10:23.076Z,0
2017-04-09T00:11:23.401Z,0
2017-04-09T00:12:23.477Z,0
2017-04-09T00:13:23.452Z,0
2017-04-09T00:14:23.141Z,0
2017-04-09T00:15:23.472Z,0
2017-04-09T00:16:23.616Z,0
2017-04-09T00:17:23.696Z,0
2017-04-09T00:18:23.597Z,0
2017-04-09T00:19:23.009Z,0
2017-04-09T00:20:23.649Z,0
2017-04-09T00:21:23.661Z,0
2017-04-09T00:22:23.664Z,0
2017-04-09T00:23:23.698Z,0
2017-04-09T00:24:23.384Z,0
2017-04-09T00:25:23.645Z,0
2017-04-09T00:26:23.669Z,0
2017-04-09T00:27:23.695Z,0
2017-04-09T00:28:23.754Z,0
2017-04-09T00:29:23.715Z,0
2017-04-09T00:30:23.728Z,0
2017-04-09T00:31:23.740Z,0
2017-04-09T00:32:23.759Z,0
2017-04-09T00:33:23.782Z,0
2017-04-09T00:34:23.801Z,0
2017-04-09T00:35:23.810Z,0
2017-04-09T00:36:23.826Z,0
2017-04-09T00:37:23.852Z,0
2017-04-09T00:38:23.861Z,0
2017-04-09T00:39:23.881Z,0
2017-04-09T00:40:23.891Z,0
2017-04-09T00:41:23.908Z,0
2017-04-09T00:42:23.929Z,0
2017-04-09T00:43:23.628Z,0
2017-04-09T00:44:23.964Z,0
2017-04-09T00:45:23.981Z,0
2017-04-09T00:46:23.996Z,0
2017-04-09T00:47:24.008Z,0
2017-04-09T00:48:24.073Z,0
2017-04-09T00:49:24.063Z,0
2017-04-09T00:50:24.070Z,0
2017-04-09T00:51:24.078Z,0
2017-04-09T00:52:24.095Z,0
2017-04-09T00:53:24.121Z,0
2017-04-09T00:54:24.131Z,0
2017-04-09T00:55:24.157Z,0
2017-04-09T00:56:24.170Z,0
2017-04-09T00:57:24.182Z,0
2017-04-09T00:58:24.204Z,0
2017-04-09T00:59:23.908Z,0
2017-04-09T01:00:24.230Z,0
2017-04-09T01:01:23.937Z,0
2017-04-09T01:02:24.267Z,0
2017-04-09T01:03:23.974Z,0
2017-04-09T01:04:24.303Z,0
2017-04-09T01:05:24.006Z,0
2017-04-09T01:06:24.333Z,0
2017-04-09T01:07:24.354Z,0
2017-04-09T01:08:24.374Z,0
2017-04-09T01:09:24.072Z,0
2017-04-09T01:10:24.407Z,0
2017-04-09T01:11:24.422Z,0
2017-04-09T01:12:24.437Z,0
2017-04-09T01:13:24.149Z,0
2017-04-09T01:14:24.163Z,0
2017-04-09T01:15:24.482Z,0
2017-04-09T01:16:24.507Z,0
2017-04-09T01:17:24.517Z,0
2017-04-09T01:18:24.556Z,0
2017-04-09T01:19:24.570Z,0
2017-04-09T01:20:24.565Z,0
2017-04-09T01:21:24.583Z,0
2017-04-09T01:22:24.610Z,0
2017-04-09T01:23:24.622Z,0
2017-04-09T01:24:24.633Z,0
2017-04-09T01:25:24.649Z,0
2017-04-09T01:26:24.676Z,0
2017-04-09T01:27:24.680Z,0
2017-04-09T01:28:24.701Z,0
2017-04-09T01:29:24.719Z,0
2017-04-09T01:30:24.827Z,0
2017-04-09T01:31:24.756Z,0
2017-04-09T01:32:24.788Z,0
2017-04-09T01:33:24.784Z,0
2017-04-09T01:34:24.798Z,0
2017-04-09T01:35:24.822Z,0
2017-04-09T01:36:24.835Z,0
2017-04-09T01:37:24.857Z,0
2017-04-09T01:38:24.584Z,0
2017-04-09T01:39:24.932Z,0
2017-04-09T01:40:24.906Z,0
2017-04-09T01:41:24.919Z,0
2017-04-09T01:42:24.938Z,0
2017-04-09T01:43:25.073Z,0
2017-04-09T01:44:25.082Z,0
2017-04-09T01:45:25.083Z,0
2017-04-09T01:46:25.007Z,0
2017-04-09T01:47:25.018Z,0
2017-04-09T01:48:25.157Z,0
2017-04-09T01:49:24.837Z,0
2017-04-09T01:50:25.165Z,0
2017-04-09T01:51:25.289Z,0
2017-04-09T01:52:25.318Z,0
2017-04-09T01:53:25.317Z,0
2017-04-09T01:54:25.036Z,0
2017-04-09T01:55:25.334Z,0
2017-04-09T01:56:25.019Z,0
2017-04-09T01:57:25.345Z,0
2017-04-09T01:58:25.350Z,0
2017-04-09T01:59:25.060Z,0
2017-04-09T02:00:25.353Z,0
2017-04-09T02:01:24.712Z,0
2017-04-09T02:02:25.479Z,0
2017-04-09T02:03:25.484Z,0
2017-04-09T02:04:25.485Z,0
2017-04-09T02:05:25.509Z,0
2017-04-09T02:06:25.512Z,0
2017-04-09T02:07:25.523Z,0
2017-04-09T02:08:25.458Z,0
2017-04-09T02:09:25.468Z,0
2017-04-09T02:10:25.475Z,0
2017-04-09T02:11:25.216Z,0
2017-04-09T02:12:25.522Z,0
2017-04-09T02:13:25.535Z,0
2017-04-09T02:14:25.605Z,0
2017-04-09T02:15:25.547Z,0
2017-04-09T02:16:25.508Z,0
2017-04-09T02:17:25.665Z,0
2017-04-09T02:18:25.233Z,0
2017-04-09T02:19:25.548Z,0
2017-04-09T02:20:25.565Z,0
2017-04-09T02:21:25.587Z,0
2017-04-09T02:22:25.598Z,0
2017-04-09T02:23:25.604Z,0
2017-04-09T02:24:25.623Z,0
2017-04-09T02:25:25.651Z,0
2017-04-09T02:26:25.656Z,0
2017-04-09T02:27:25.683Z,0
2017-04-09T02:28:25.690Z,0
2017-04-09T02:29:25.397Z,0
2017-04-09T02:30:25.721Z,0
2017-04-09T02:31:25.736Z,0
2017-04-09T02:32:25.450Z,0
2017-04-09T02:33:25.455Z,0
2017-04-09T02:34:25.468Z,0
2017-04-09T02:35:25.488Z,0
2017-04-09T02:36:25.510Z,0
2017-04-09T02:37:25.523Z,0
2017-04-09T02:38:25.536Z,0
2017-04-09T02:39:25.873Z,0
2017-04-09T02:40:25.879Z,0
2017-04-09T02:41:25.580Z,0
2017-04-09T02:42:25.646Z,0
2017-04-09T02:43:25.934Z,0
2017-04-09T02:44:25.948Z,0
2017-04-09T02:45:25.648Z,0
2017-04-09T02:46:25.985Z,0
2017-04-09T02:47:25.993Z,0
2017-04-09T02:48:26.016Z,0
2017-04-09T02:49:25.719Z,0
2017-04-09T02:50:26.038Z,0
2017-04-09T02:51:26.053Z,0
2017-04-09T02:52:25.760Z,0
2017-04-09T02:53:26.093Z,0
2017-04-09T02:54:26.108Z,0
2017-04-09T02:55:26.122Z,0
2017-04-09T02:56:26.158Z,0
2017-04-09T02:57:26.162Z,0
2017-04-09T02:58:26.166Z,0
2017-04-09T02:59:26.189Z,0
2017-04-09T03:00:26.203Z,0
2017-04-09T03:01:26.218Z,0
2017-04-09T03:02:26.235Z,0
2017-04-09T03:03:26.245Z,0
2017-04-09T03:04:26.272Z,0
2017-04-09T03:05:26.325Z,0
2017-04-09T03:06:25.988Z,0
2017-04-09T03:07:26.320Z,0
2017-04-09T03:08:26.336Z,0
2017-04-09T03:09:26.366Z,0
2017-04-09T03:10:26.371Z,0
2017-04-09T03:11:26.382Z,0
2017-04-09T03:12:26.391Z,0
2017-04-09T03:13:26.110Z,0
2017-04-09T03:14:26.423Z,0
2017-04-09T03:15:26.443Z,0
2017-04-09T03:16:26.461Z,0
2017-04-09T03:17:26.480Z,0
2017-04-09T03:18:26.516Z,0
2017-04-09T03:19:26.526Z,0
2017-04-09T03:20:26.519Z,0
2017-04-09T03:21:26.537Z,0
2017-04-09T03:22:26.561Z,0
2017-04-09T03:23:26.578Z,0
2017-04-09T03:24:26.586Z,0
2017-04-09T03:25:26.613Z,0
2017-04-09T03:26:26.618Z,0
2017-04-09T03:27:26.633Z,0
2017-04-09T03:28:26.654Z,0
2017-04-09T03:29:26.671Z,0
2017-04-09T03:30:26.688Z,0
2017-04-09T03:31:26.705Z,0
2017-04-09T03:32:26.411Z,0
2017-04-09T03:33:26.781Z,0
2017-04-09T03:34:26.751Z,0
2017-04-09T03:35:26.447Z,0
2017-04-09T03:36:26.778Z,0
2017-04-09T03:37:26.798Z,0
2017-04-09T03:38:26.809Z,0
2017-04-09T03:39:26.839Z,0
2017-04-09T03:40:26.843Z,0
2017-04-09T03:41:26.858Z,0
2017-04-09T03:42:26.883Z,0
2017-04-09T03:43:26.895Z,0
2017-04-09T03:44:26.900Z,0
2017-04-09T03:45:26.925Z,0
2017-04-09T03:46:26.939Z,0
2017-04-09T03:47:26.952Z,0
2017-04-09T03:48:26.968Z,0
2017-04-09T03:49:26.999Z,0
2017-04-09T03:50:27.002Z,0
2017-04-09T03:51:27.016Z,0
2017-04-09T03:52:27.029Z,0
2017-04-09T03:53:27.044Z,0
2017-04-09T03:54:27.062Z,0
2017-04-09T03:55:27.125Z,0
2017-04-09T03:56:27.091Z,0
2017-04-09T03:57:27.106Z,0
2017-04-09T03:58:27.122Z,0
2017-04-09T03:59:27.139Z,0
2017-04-09T04:00:27.186Z,0
2017-04-09T04:01:27.170Z,0
2017-04-09T04:02:27.192Z,0
2017-04-09T04:03:26.909Z,0
2017-04-09T04:04:27.224Z,0
2017-04-09T04:05:27.237Z,0
2017-04-09T04:06:27.256Z,0
2017-04-09T04:07:27.271Z,0
2017-04-09T04:08:27.281Z,0
2017-04-09T04:09:26.997Z,0
2017-04-09T04:10:27.033Z,4
2017-04-09T04:11:27.335Z,4
2017-04-09T04:12:27.346Z,0
2017-04-09T04:13:27.363Z,4
2017-04-09T04:14:27.376Z,4
2017-04-09T04:15:27.077Z,8
2017-04-09T04:16:27.406Z,4
2017-04-09T04:17:27.662Z,8
2017-04-09T04:18:27.669Z,8
2017-04-09T04:19:27.668Z,8
2017-04-09T04:20:27.673Z,8
2017-04-09T04:21:27.690Z,8
2017-04-09T04:22:27.702Z,16
2017-04-09T04:23:27.709Z,16
2017-04-09T04:24:27.718Z,16
2017-04-09T04:25:27.674Z,20
2017-04-09T04:26:27.283Z,20
2017-04-09T04:27:27.740Z,24
2017-04-09T04:28:27.745Z,24
2017-04-09T04:29:27.794Z,28
2017-04-09T04:30:27.512Z,28
2017-04-09T04:31:27.805Z,32
2017-04-09T04:32:27.816Z,36
2017-04-09T04:33:27.825Z,40
2017-04-09T04:34:27.689Z,40
2017-04-09T04:35:27.757Z,44
2017-04-09T04:36:27.720Z,48
2017-04-09T04:37:27.737Z,52
2017-04-09T04:38:27.755Z,56
2017-04-09T04:39:27.771Z,60
2017-04-09T04:40:27.784Z,64
2017-04-09T04:41:27.804Z,68
2017-04-09T04:42:27.832Z,68
2017-04-09T04:43:27.834Z,72
2017-04-09T04:44:27.852Z,76
2017-04-09T04:45:27.854Z,84
2017-04-09T04:46:27.875Z,84
2017-04-09T04:47:27.893Z,92
2017-04-09T04:48:27.910Z,96
2017-04-09T04:49:27.928Z,96
2017-04-09T04:50:27.931Z,104
2017-04-09T04:51:27.952Z,104
2017-04-09T04:52:27.969Z,112
2017-04-09T04:53:27.675Z,116
2017-04-09T04:54:28.009Z,120
2017-04-09T04:55:28.015Z,124
2017-04-09T04:56:28.190Z,132
2017-04-09T04:57:28.049Z,140
2017-04-09T04:58:28.064Z,144
2017-04-09T04:59:28.084Z,156
2017-04-09T05:00:28.096Z,156
2017-04-09T05:01:28.117Z,164
2017-04-09T05:02:28.154Z,168
2017-04-09T05:03:28.151Z,172
2017-04-09T05:04:28.166Z,168
2017-04-09T05:05:28.169Z,168
2017-04-09T05:06:28.183Z,172
2017-04-09T05:07:28.232Z,176
2017-04-09T05:08:28.478Z,180
2017-04-09T05:09:28.375Z,184
2017-04-09T05:10:27.938Z,188
2017-04-09T05:11:28.352Z,188
2017-04-09T05:12:28.107Z,192
2017-04-09T05:13:28.330Z,196
2017-04-09T05:14:28.379Z,196
2017-04-09T05:15:28.340Z,200
2017-04-09T05:16:28.047Z,204
2017-04-09T05:17:28.050Z,208
2017-04-09T05:18:28.422Z,212
2017-04-09T05:19:28.452Z,212
2017-04-09T05:20:28.350Z,212
2017-04-09T05:21:28.414Z,216
2017-04-09T05:22:28.124Z,224
2017-04-09T05:23:28.453Z,224
2017-04-09T05:24:28.460Z,228
2017-04-09T05:25:28.478Z,232
2017-04-09T05:26:28.495Z,236
2017-04-09T05:27:28.512Z,240
2017-04-09T05:28:28.520Z,244
2017-04-09T05:29:28.537Z,244
2017-04-09T05:30:28.593Z,248
2017-04-09T05:31:28.566Z,252
2017-04-09T05:32:28.327Z,256
2017-04-09T05:33:28.604Z,260
2017-04-09T05:34:28.613Z,264
2017-04-09T05:35:28.628Z,268
2017-04-09T05:36:28.661Z,268
2017-04-09T05:37:28.668Z,272
2017-04-09T05:38:28.671Z,276
2017-04-09T05:39:28.696Z,276
2017-04-09T05:40:28.711Z,280
2017-04-09T05:41:28.415Z,280
2017-04-09T05:42:28.743Z,280
2017-04-09T05:43:28.756Z,284
2017-04-09T05:44:28.461Z,288
2017-04-09T05:45:28.788Z,292
2017-04-09T05:46:28.850Z,296
2017-04-09T05:47:28.827Z,296
2017-04-09T05:48:28.830Z,300
2017-04-09T05:49:28.850Z,300
2017-04-09T05:50:28.555Z,304
2017-04-09T05:51:28.879Z,304
2017-04-09T05:52:28.894Z,308
2017-04-09T05:53:28.916Z,312
2017-04-09T05:54:28.933Z,312
2017-04-09T05:55:28.947Z,320
2017-04-09T05:56:28.963Z,324
2017-04-09T05:57:28.675Z,328
2017-04-09T05:58:29.018Z,340
2017-04-09T05:59:28.713Z,348
2017-04-09T06:00:29.028Z,348
2017-04-09T06:01:28.802Z,352
2017-04-09T06:02:29.208Z,356
2017-04-09T06:03:28.951Z,364
2017-04-09T06:04:28.790Z,356
2017-04-09T06:05:29.106Z,348
2017-04-09T06:06:29.125Z,344
2017-04-09T06:07:29.137Z,344
2017-04-09T06:08:29.146Z,344
2017-04-09T06:09:29.178Z,344
2017-04-09T06:10:28.864Z,344
2017-04-09T06:11:29.189Z,340
2017-04-09T06:12:29.216Z,344
2017-04-09T06:13:29.214Z,344
2017-04-09T06:14:29.288Z,348
2017-04-09T06:15:29.254Z,348
2017-04-09T06:16:29.272Z,348
2017-04-09T06:17:29.280Z,352
2017-04-09T06:18:29.302Z,352
2017-04-09T06:19:29.024Z,348
2017-04-09T06:20:29.378Z,352
2017-04-09T06:21:29.356Z,356
2017-04-09T06:22:29.368Z,356
2017-04-09T06:23:29.405Z,360
2017-04-09T06:24:29.400Z,360
2017-04-09T06:25:29.531Z,360
2017-04-09T06:26:28.817Z,360
2017-04-09T06:27:29.469Z,364
2017-04-09T06:28:29.483Z,364
2017-04-09T06:29:29.477Z,364
2017-04-09T06:30:29.369Z,368
2017-04-09T06:31:29.692Z,372
2017-04-09T06:32:29.532Z,376
2017-04-09T06:33:29.540Z,380
2017-04-09T06:34:29.557Z,384
2017-04-09T06:35:29.720Z,384
2017-04-09T06:36:29.279Z,380
2017-04-09T06:37:29.634Z,380
2017-04-09T06:38:29.632Z,380
2017-04-09T06:39:29.641Z,384
2017-04-09T06:40:29.649Z,384
2017-04-09T06:41:29.658Z,384
2017-04-09T06:42:29.667Z,388
2017-04-09T06:43:29.681Z,388
2017-04-09T06:44:29.705Z,388
2017-04-09T06:45:29.400Z,388
2017-04-09T06:46:29.434Z,388
2017-04-09T06:47:29.782Z,392
2017-04-09T06:48:29.161Z,392
2017-04-09T06:49:29.811Z,392
2017-04-09T06:50:29.812Z,392
2017-04-09T06:51:29.814Z,392
2017-04-09T06:52:29.834Z,396
2017-04-09T06:53:29.543Z,396
2017-04-09T06:54:29.874Z,400
2017-04-09T06:55:29.667Z,400
2017-04-09T06:56:29.896Z,400
2017-04-09T06:57:29.628Z,400
2017-04-09T06:58:29.938Z,404
2017-04-09T06:59:29.941Z,400
2017-04-09T07:00:29.957Z,404
2017-04-09T07:01:29.989Z,408
2017-04-09T07:02:30.100Z,408
2017-04-09T07:03:30.106Z,404
2017-04-09T07:04:30.113Z,408
2017-04-09T07:05:30.131Z,412
2017-04-09T07:06:30.112Z,408
2017-04-09T07:07:30.150Z,412
2017-04-09T07:08:30.135Z,412
2017-04-09T07:09:29.917Z,416
2017-04-09T07:10:30.222Z,412
2017-04-09T07:11:29.890Z,416
2017-04-09T07:12:30.164Z,416
2017-04-09T07:13:29.849Z,416
2017-04-09T07:14:29.898Z,420
2017-04-09T07:15:30.194Z,420
2017-04-09T07:16:30.206Z,416
2017-04-09T07:17:29.609Z,420
2017-04-09T07:18:30.245Z,424
2017-04-09T07:19:30.267Z,424
2017-04-09T07:20:30.279Z,428
2017-04-09T07:21:30.298Z,428
2017-04-09T07:22:30.443Z,424
2017-04-09T07:23:30.323Z,428
2017-04-09T07:24:30.340Z,428
2017-04-09T07:25:30.465Z,432
2017-04-09T07:26:30.463Z,428
2017-04-09T07:27:30.072Z,432
2017-04-09T07:28:30.503Z,432
2017-04-09T07:29:30.511Z,436
2017-04-09T07:30:30.516Z,436
2017-04-09T07:31:30.525Z,440
2017-04-09T07:32:30.571Z,444
2017-04-09T07:33:30.288Z,444
2017-04-09T07:34:30.192Z,448
2017-04-09T07:35:30.302Z,448
2017-04-09T07:36:30.607Z,452
2017-04-09T07:37:30.612Z,452
2017-04-09T07:38:30.642Z,452
2017-04-09T07:39:30.270Z,456
2017-04-09T07:40:30.720Z,464
2017-04-09T07:41:30.721Z,464
2017-04-09T07:42:30.741Z,464
2017-04-09T07:43:30.429Z,464
2017-04-09T07:44:30.862Z,468
2017-04-09T07:45:30.862Z,468
2017-04-09T07:46:30.871Z,468
2017-04-09T07:47:30.842Z,472
2017-04-09T07:48:30.874Z,472
2017-04-09T07:49:30.553Z,476
2017-04-09T07:50:30.875Z,480
2017-04-09T07:51:30.888Z,484
2017-04-09T07:52:30.897Z,484
2017-04-09T07:53:30.954Z,484
2017-04-09T07:54:31.052Z,484
2017-04-09T07:55:31.029Z,488
2017-04-09T07:56:30.397Z,492
2017-04-09T07:57:31.026Z,488
2017-04-09T07:58:31.033Z,492
2017-04-09T07:59:30.916Z,492
2017-04-09T08:00:30.936Z,492
2017-04-09T08:01:30.953Z,496
2017-04-09T08:02:30.970Z,500
2017-04-09T08:03:30.992Z,500
2017-04-09T08:04:31.013Z,504
2017-04-09T08:05:31.039Z,504
2017-04-09T08:06:31.034Z,508
2017-04-09T08:07:31.062Z,512
2017-04-09T08:08:31.076Z,508
2017-04-09T08:09:31.087Z,508
2017-04-09T08:10:31.107Z,508
2017-04-09T08:11:31.123Z,508
2017-04-09T08:12:31.151Z,512
2017-04-09T08:13:31.167Z,512
2017-04-09T08:14:31.185Z,520
2017-04-09T08:15:31.218Z,520
2017-04-09T08:16:31.215Z,520
2017-04-09T08:17:31.225Z,524
2017-04-09T08:18:31.244Z,524
2017-04-09T08:19:31.371Z,524
2017-04-09T08:20:31.384Z,524
2017-04-09T08:21:30.991Z,528
2017-04-09T08:22:31.101Z,536
2017-04-09T08:23:31.086Z,536
2017-04-09T08:24:31.048Z,544
2017-04-09T08:25:31.063Z,552
2017-04-09T08:26:31.426Z,552
2017-04-09T08:27:31.429Z,556
2017-04-09T08:28:31.124Z,556
2017-04-09T08:29:31.449Z,564
2017-04-09T08:30:31.577Z,568
2017-04-09T08:31:31.513Z,572
2017-04-09T08:32:31.522Z,580
2017-04-09T08:33:31.650Z,588
2017-04-09T08:34:31.348Z,596
2017-04-09T08:35:31.695Z,592
2017-04-09T08:36:31.670Z,596
2017-04-09T08:37:31.229Z,592
2017-04-09T08:38:31.859Z,596
2017-04-09T08:39:31.841Z,600
2017-04-09T08:40:31.536Z,600
2017-04-09T08:41:31.865Z,604
2017-04-09T08:42:31.865Z,608
2017-04-09T08:43:32.005Z,616
2017-04-09T08:44:31.571Z,620
2017-04-09T08:45:31.580Z,624
2017-04-09T08:46:31.995Z,628
2017-04-09T08:47:31.979Z,632
2017-04-09T08:48:31.673Z,632
2017-04-09T08:49:32.004Z,640
2017-04-09T08:50:32.011Z,644
2017-04-09T08:51:32.015Z,648
2017-04-09T08:52:31.715Z,648
2017-04-09T08:53:31.964Z,652
2017-04-09T08:54:32.010Z,660
2017-04-09T08:55:32.051Z,664
2017-04-09T08:56:31.987Z,672
2017-04-09T08:57:31.678Z,680
2017-04-09T08:58:32.031Z,688
2017-04-09T08:59:32.045Z,692
2017-04-09T09:00:32.072Z,704
2017-04-09T09:01:32.050Z,712
2017-04-09T09:02:32.265Z,712
2017-04-09T09:03:32.076Z,720
2017-04-09T09:04:32.102Z,724
2017-04-09T09:05:32.121Z,728
2017-04-09T09:06:31.842Z,732
2017-04-09T09:07:31.844Z,736
2017-04-09T09:08:32.184Z,744
2017-04-09T09:09:32.312Z,752
2017-04-09T09:10:32.311Z,756
2017-04-09T09:11:32.322Z,756
2017-04-09T09:12:32.351Z,768
2017-04-09T09:13:32.050Z,768
2017-04-09T09:14:32.370Z,780
2017-04-09T09:15:32.389Z,784
2017-04-09T09:16:32.378Z,788
2017-04-09T09:17:32.392Z,800
2017-04-09T09:18:32.169Z,804
2017-04-09T09:19:32.450Z,812
2017-04-09T09:20:32.463Z,820
2017-04-09T09:21:32.476Z,828
2017-04-09T09:22:32.454Z,840
2017-04-09T09:23:32.589Z,844
2017-04-09T09:24:32.594Z,848
2017-04-09T09:25:32.630Z,860
2017-04-09T09:26:32.622Z,876
2017-04-09T09:27:32.646Z,892
2017-04-09T09:28:32.668Z,912
2017-04-09T09:29:32.823Z,928
2017-04-09T09:30:32.735Z,920
2017-04-09T09:31:32.742Z,920
2017-04-09T09:32:32.751Z,932
2017-04-09T09:33:32.888Z,932
2017-04-09T09:34:32.896Z,940
2017-04-09T09:35:32.910Z,948
2017-04-09T09:36:32.910Z,952
2017-04-09T09:37:32.930Z,956
2017-04-09T09:38:32.922Z,972
2017-04-09T09:39:32.900Z,980
2017-04-09T09:40:32.888Z,992
2017-04-09T09:41:32.919Z,992
2017-04-09T09:42:32.932Z,996
2017-04-09T09:43:32.925Z,1008
2017-04-09T09:44:32.940Z,1036
2017-04-09T09:45:32.297Z,1096
2017-04-09T09:46:32.946Z,1136
2017-04-09T09:47:32.963Z,1128
2017-04-09T09:48:32.983Z,1116
2017-04-09T09:49:32.999Z,1108
2017-04-09T09:50:33.017Z,1092
2017-04-09T09:51:33.039Z,1084
2017-04-09T09:52:32.437Z,1096
2017-04-09T09:53:32.514Z,1116
2017-04-09T09:54:33.113Z,1156
2017-04-09T09:55:33.129Z,1236
2017-04-09T09:56:33.149Z,1312
2017-04-09T09:57:32.856Z,1472
2017-04-09T09:58:33.191Z,1428
2017-04-09T09:59:33.341Z,1396
2017-04-09T10:00:33.231Z,1364
2017-04-09T10:01:33.248Z,1372
2017-04-09T10:02:32.961Z,1348
2017-04-09T10:03:32.980Z,1360
2017-04-09T10:04:33.010Z,1400
2017-04-09T10:05:33.339Z,1408
2017-04-09T10:06:33.356Z,1368
2017-04-09T10:07:33.384Z,1296
2017-04-09T10:08:33.404Z,1248
2017-04-09T10:09:33.422Z,1248
2017-04-09T10:10:33.449Z,1240
2017-04-09T10:11:33.157Z,1236
2017-04-09T10:12:33.494Z,1240
2017-04-09T10:13:33.512Z,1252
2017-04-09T10:14:33.219Z,1260
2017-04-09T10:15:33.558Z,1016
2017-04-09T10:16:33.580Z,1184
2017-04-09T10:17:33.599Z,1216
2017-04-09T10:18:33.621Z,1284
2017-04-09T10:19:33.645Z,1336
2017-04-09T10:20:33.717Z,1364
2017-04-09T10:21:33.683Z,1448
2017-04-09T10:22:33.713Z,1576
2017-04-09T10:23:33.730Z,1692
2017-04-09T10:24:33.762Z,1692
2017-04-09T10:25:33.777Z,1752
2017-04-09T10:26:33.797Z,1844
2017-04-09T10:27:33.833Z,2040
2017-04-09T10:28:33.852Z,2276
2017-04-09T10:29:33.871Z,2352
2017-04-09T10:30:33.578Z,2352
2017-04-09T10:31:33.910Z,2484
2017-04-09T10:32:33.937Z,2424
2017-04-09T10:33:33.961Z,2368
2017-04-09T10:34:33.986Z,2204
2017-04-09T10:35:34.014Z,2408
2017-04-09T10:36:34.027Z,2780
2017-04-09T10:37:34.068Z,2840
2017-04-09T10:38:34.101Z,2956
2017-04-09T10:39:34.096Z,2944
2017-04-09T10:40:34.117Z,2872
2017-04-09T10:41:34.210Z,2892
2017-04-09T10:42:34.217Z,2736
2017-04-09T10:43:33.876Z,2808
2017-04-09T10:44:34.232Z,3196
2017-04-09T10:45:33.927Z,3404
2017-04-09T10:46:34.386Z,3412
2017-04-09T10:47:34.098Z,3408
2017-04-09T10:48:34.431Z,3452
2017-04-09T10:49:34.120Z,3368
2017-04-09T10:50:34.651Z,3372
2017-04-09T10:51:34.499Z,3564
2017-04-09T10:52:34.500Z,3512
2017-04-09T10:53:34.545Z,3476
2017-04-09T10:54:34.659Z,3340
2017-04-09T10:55:34.669Z,3172
2017-04-09T10:56:34.681Z,2924
2017-04-09T10:57:34.693Z,2552
2017-04-09T10:58:34.739Z,2252
2017-04-09T10:59:34.707Z,2288
2017-04-09T11:00:34.706Z,2332
2017-04-09T11:01:34.710Z,2220
2017-04-09T11:02:34.768Z,2056
2017-04-09T11:03:34.824Z,1812
2017-04-09T11:04:34.811Z,1732
2017-04-09T11:05:34.817Z,1748
2017-04-09T11:06:34.829Z,1872
2017-04-09T11:07:34.826Z,1920
2017-04-09T11:08:34.873Z,2000
2017-04-09T11:09:34.889Z,2012
2017-04-09T11:10:34.910Z,2004
2017-04-09T11:11:34.878Z,2032
2017-04-09T11:12:34.885Z,2092
2017-04-09T11:13:34.906Z,2196
2017-04-09T11:14:34.935Z,2164
2017-04-09T11:15:34.962Z,2036
2017-04-09T11:16:34.994Z,1948
2017-04-09T11:17:35.003Z,1852
2017-04-09T11:18:35.027Z,1736
2017-04-09T11:19:35.055Z,1760
2017-04-09T11:20:34.868Z,1828
2017-04-09T11:21:35.212Z,1760
2017-04-09T11:22:35.215Z,1752
2017-04-09T11:23:35.234Z,1724
2017-04-09T11:24:35.233Z,1680
2017-04-09T11:25:34.932Z,1724
2017-04-09T11:26:35.242Z,1692
2017-04-09T11:27:35.312Z,1680
2017-04-09T11:28:35.312Z,1664
2017-04-09T11:29:35.314Z,1676
2017-04-09T11:30:35.134Z,1684
2017-04-09T11:31:35.451Z,1692
2017-04-09T11:32:35.165Z,1668
2017-04-09T11:33:35.187Z,1700
2017-04-09T11:34:35.211Z,1720
2017-04-09T11:35:35.598Z,1704
2017-04-09T11:36:35.289Z,1696
2017-04-09T11:37:35.609Z,1688
2017-04-09T11:38:35.618Z,1696
2017-04-09T11:39:35.758Z,1728
2017-04-09T11:40:35.772Z,1748
2017-04-09T11:41:35.481Z,1768
2017-04-09T11:42:35.797Z,1740
2017-04-09T11:43:35.813Z,1720
2017-04-09T11:44:35.882Z,1728
2017-04-09T11:45:35.800Z,1720
2017-04-09T11:46:35.786Z,1712
2017-04-09T11:47:35.794Z,1696
2017-04-09T11:48:35.818Z,1700
2017-04-09T11:49:35.814Z,1700
2017-04-09T11:50:35.520Z,1696
2017-04-09T11:51:35.887Z,1708
2017-04-09T11:52:35.893Z,1720
2017-04-09T11:53:35.927Z,1708
2017-04-09T11:54:35.964Z,1688
2017-04-09T11:55:35.967Z,1712
2017-04-09T11:56:35.989Z,1772
2017-04-09T11:57:35.706Z,1748
2017-04-09T11:58:36.045Z,1668
2017-04-09T11:59:36.178Z,1676
2017-04-09T12:00:36.181Z,1696
2017-04-09T12:01:36.212Z,1764
2017-04-09T12:02:35.938Z,1816
2017-04-09T12:03:36.271Z,1824
2017-04-09T12:04:36.302Z,1840
2017-04-09T12:05:36.293Z,1844
2017-04-09T12:06:36.297Z,1424
2017-04-09T12:07:36.331Z,1760
2017-04-09T12:08:36.438Z,1520
2017-04-09T12:09:36.122Z,1452
2017-04-09T12:10:36.488Z,1596
2017-04-09T12:11:36.172Z,1448
2017-04-09T12:12:36.320Z,1800
2017-04-09T12:13:36.332Z,1812
2017-04-09T12:14:36.347Z,1820
2017-04-09T12:15:36.376Z,2364
2017-04-09T12:16:36.420Z,2428
2017-04-09T12:17:36.397Z,2424
2017-04-09T12:18:36.714Z,2500
2017-04-09T12:19:36.406Z,2504
2017-04-09T12:20:36.784Z,2524
2017-04-09T12:21:36.445Z,2428
2017-04-09T12:22:36.746Z,2224
2017-04-09T12:23:36.794Z,2276
2017-04-09T12:24:36.516Z,2392
2017-04-09T12:25:36.852Z,2456
2017-04-09T12:26:36.831Z,2472
2017-04-09T12:27:36.899Z,2372
2017-04-09T12:28:36.838Z,2188
2017-04-09T12:29:36.228Z,2092
2017-04-09T12:30:36.883Z,2184
2017-04-09T12:31:36.911Z,2288
2017-04-09T12:32:36.690Z,2544
2017-04-09T12:33:36.651Z,2700
2017-04-09T12:34:36.681Z,2644
2017-04-09T12:35:36.713Z,2544
2017-04-09T12:36:37.058Z,2444
2017-04-09T12:37:37.087Z,2436
2017-04-09T12:38:37.104Z,2528
2017-04-09T12:39:37.145Z,2516
2017-04-09T12:40:51.831Z,1972
2017-04-09T12:41:37.185Z,1808
2017-04-09T12:42:36.908Z,1688
2017-04-09T12:43:37.254Z,1664
2017-04-09T12:44:37.272Z,1664
2017-04-09T12:45:37.297Z,1716
2017-04-09T12:46:37.373Z,1716
2017-04-09T12:47:37.352Z,1664
2017-04-09T12:48:37.377Z,1588
2017-04-09T12:49:37.408Z,1532
2017-04-09T12:50:37.439Z,1516
2017-04-09T12:51:36.830Z,1536
2017-04-09T12:52:37.172Z,1516
2017-04-09T12:53:37.524Z,1520
2017-04-09T12:54:37.226Z,1516
2017-04-09T12:55:37.254Z,1492
2017-04-09T12:56:37.283Z,1512
2017-04-09T12:57:37.621Z,1452
2017-04-09T12:58:37.023Z,1484
2017-04-09T12:59:37.683Z,1508
2017-04-09T13:00:37.703Z,1528
2017-04-09T13:01:37.415Z,1556
2017-04-09T13:02:37.762Z,1588
2017-04-09T13:03:37.787Z,1584
2017-04-09T13:04:37.499Z,1552
2017-04-09T13:05:37.535Z,1544
2017-04-09T13:06:37.868Z,1548
2017-04-09T13:07:37.904Z,1544
2017-04-09T13:08:37.928Z,1548
2017-04-09T13:09:37.638Z,1548
2017-04-09T13:10:38.008Z,1540
2017-04-09T13:11:38.009Z,1532
2017-04-09T13:12:38.049Z,1532
2017-04-09T13:13:38.067Z,1540
2017-04-09T13:14:37.811Z,1552
2017-04-09T13:15:38.120Z,1572
2017-04-09T13:16:37.839Z,1580
2017-04-09T13:17:37.863Z,1580
2017-04-09T13:18:38.199Z,1560
2017-04-09T13:19:38.235Z,1544
2017-04-09T13:20:37.945Z,1532
2017-04-09T13:21:38.285Z,1532
2017-04-09T13:22:38.316Z,1552
2017-04-09T13:23:38.059Z,1580
2017-04-09T13:24:38.065Z,1608
2017-04-09T13:25:38.398Z,1608
2017-04-09T13:26:38.424Z,1608
2017-04-09T13:27:38.454Z,1624
2017-04-09T13:28:38.476Z,1632
2017-04-09T13:29:38.511Z,1648
2017-04-09T13:30:38.537Z,1644
2017-04-09T13:31:38.249Z,1636
2017-04-09T13:32:38.639Z,1632
2017-04-09T13:33:38.636Z,1624
2017-04-09T13:34:38.657Z,1640
2017-04-09T13:35:38.373Z,1664
2017-04-09T13:36:38.708Z,1688
2017-04-09T13:37:38.742Z,1720
2017-04-09T13:38:38.773Z,1732
2017-04-09T13:39:38.791Z,1740
2017-04-09T13:40:38.818Z,1740
2017-04-09T13:41:38.849Z,1736
2017-04-09T13:42:38.888Z,1756
2017-04-09T13:43:38.285Z,1756
2017-04-09T13:44:39.053Z,1748
2017-04-09T13:45:39.051Z,1752
2017-04-09T13:46:39.064Z,1760
2017-04-09T13:47:39.071Z,1764
2017-04-09T13:48:39.077Z,1772
2017-04-09T13:49:39.087Z,1768
2017-04-09T13:50:39.105Z,1760
2017-04-09T13:51:39.154Z,1772
2017-04-09T13:52:39.163Z,1772
2017-04-09T13:53:38.990Z,1788
2017-04-09T13:54:39.012Z,1788
2017-04-09T13:55:39.021Z,1808
2017-04-09T13:56:39.330Z,1812